sensor_id;sensor_type;location;lat;lon;timestamp;P1;durP1;ratioP1;P2;durP2;ratioP2
16820;SDS011;8527;49.740;6.604;2022-12-18T00:03:42;63.17;;;19.85;;
16820;SDS011;8527;49.740;6.604;2022-12-18T00:08:41;65.47;;;19.33;;
16820;SDS011;8527;49.740;6.604;2022-12-18T00:13:39;55.33;;;18.65;;
16820;SDS011;8527;49.740;6.604;2022-12-18T00:18:41;58.20;;;19.25;;
16820;SDS011;8527;49.740;6.604;2022-12-18T00:23:43;177.75;;;56.13;;
16820;SDS011;8527;49.740;6.604;2022-12-18T00:28:42;138.73;;;48.80;;
16820;SDS011;8527;49.740;6.604;2022-12-18T00:33:44;75.95;;;26.48;;
16820;SDS011;8527;49.740;6.604;2022-12-18T00:38:45;59.10;;;20.10;;
16820;SDS011;8527;49.740;6.604;2022-12-18T00:43:47;60.25;;;18.45;;
16820;SDS011;8527;49.740;6.604;2022-12-18T00:48:48;46.30;;;17.35;;
16820;SDS011;8527;49.740;6.604;2022-12-18T00:53:46;50.47;;;17.60;;
16820;SDS011;8527;49.740;6.604;2022-12-18T00:58:45;52.33;;;17.08;;
16820;SDS011;8527;49.740;6.604;2022-12-18T01:03:48;52.47;;;17.88;;
16820;SDS011;8527;49.740;6.604;2022-12-18T01:08:47;54.45;;;19.85;;
16820;SDS011;8527;49.740;6.604;2022-12-18T01:13:45;56.33;;;18.00;;
16820;SDS011;8527;49.740;6.604;2022-12-18T01:18:44;44.85;;;15.27;;
16820;SDS011;8527;49.740;6.604;2022-12-18T01:23:50;60.55;;;18.08;;
16820;SDS011;8527;49.740;6.604;2022-12-18T01:28:49;48.58;;;18.05;;
16820;SDS011;8527;49.740;6.604;2022-12-18T01:33:47;54.15;;;17.13;;
16820;SDS011;8527;49.740;6.604;2022-12-18T01:38:49;45.47;;;16.90;;
16820;SDS011;8527;49.740;6.604;2022-12-18T01:43:51;53.47;;;17.02;;
16820;SDS011;8527;49.740;6.604;2022-12-18T01:48:51;56.97;;;17.42;;
16820;SDS011;8527;49.740;6.604;2022-12-18T01:53:59;53.85;;;18.30;;
16820;SDS011;8527;49.740;6.604;2022-12-18T01:58:58;55.13;;;17.33;;
16820;SDS011;8527;49.740;6.604;2022-12-18T02:04:14;51.28;;;17.92;;
16820;SDS011;8527;49.740;6.604;2022-12-18T02:09:22;50.25;;;19.88;;
16820;SDS011;8527;49.740;6.604;2022-12-18T02:14:28;43.22;;;16.80;;
16820;SDS011;8527;49.740;6.604;2022-12-18T02:19:44;50.38;;;16.90;;
16820;SDS011;8527;49.740;6.604;2022-12-18T02:24:57;38.90;;;15.23;;
16820;SDS011;8527;49.740;6.604;2022-12-18T02:30:05;51.97;;;16.50;;
16820;SDS011;8527;49.740;6.604;2022-12-18T02:35:09;40.90;;;15.00;;
16820;SDS011;8527;49.740;6.604;2022-12-18T02:40:12;35.65;;;12.73;;
16820;SDS011;8527;49.740;6.604;2022-12-18T02:45:16;46.95;;;15.23;;
16820;SDS011;8527;49.740;6.604;2022-12-18T02:50:16;44.22;;;14.32;;
16820;SDS011;8527;49.740;6.604;2022-12-18T02:55:23;35.70;;;14.05;;
16820;SDS011;8527;49.740;6.604;2022-12-18T03:00:37;40.17;;;14.85;;
16820;SDS011;8527;49.740;6.604;2022-12-18T03:05:41;37.13;;;13.80;;
16820;SDS011;8527;49.740;6.604;2022-12-18T03:10:49;43.63;;;13.68;;
16820;SDS011;8527;49.740;6.604;2022-12-18T03:15:55;40.40;;;14.93;;
16820;SDS011;8527;49.740;6.604;2022-12-18T03:20:58;45.38;;;14.25;;
16820;SDS011;8527;49.740;6.604;2022-12-18T03:26:02;35.15;;;13.95;;
16820;SDS011;8527;49.740;6.604;2022-12-18T03:31:07;36.97;;;13.80;;
16820;SDS011;8527;49.740;6.604;2022-12-18T03:36:10;39.45;;;13.32;;
16820;SDS011;8527;49.740;6.604;2022-12-18T03:41:16;45.05;;;13.43;;
16820;SDS011;8527;49.740;6.604;2022-12-18T03:46:24;42.13;;;15.07;;
16820;SDS011;8527;49.740;6.604;2022-12-18T03:51:26;45.60;;;15.68;;
16820;SDS011;8527;49.740;6.604;2022-12-18T03:56:32;42.28;;;14.82;;
16820;SDS011;8527;49.740;6.604;2022-12-18T04:01:38;37.10;;;15.00;;
16820;SDS011;8527;49.740;6.604;2022-12-18T04:06:39;29.00;;;11.13;;
16820;SDS011;8527;49.740;6.604;2022-12-18T04:11:39;35.08;;;11.07;;
16820;SDS011;8527;49.740;6.604;2022-12-18T04:16:41;40.30;;;12.63;;
16820;SDS011;8527;49.740;6.604;2022-12-18T04:21:39;48.58;;;14.52;;
16820;SDS011;8527;49.740;6.604;2022-12-18T04:26:38;41.25;;;15.00;;
16820;SDS011;8527;49.740;6.604;2022-12-18T04:31:36;37.92;;;13.45;;
16820;SDS011;8527;49.740;6.604;2022-12-18T04:36:37;38.83;;;13.68;;
16820;SDS011;8527;49.740;6.604;2022-12-18T04:41:36;42.28;;;15.23;;
16820;SDS011;8527;49.740;6.604;2022-12-18T04:46:34;31.90;;;12.55;;
16820;SDS011;8527;49.740;6.604;2022-12-18T04:51:38;33.55;;;13.27;;
16820;SDS011;8527;49.740;6.604;2022-12-18T04:56:36;33.05;;;12.48;;
16820;SDS011;8527;49.740;6.604;2022-12-18T05:01:35;36.38;;;12.40;;
16820;SDS011;8527;49.740;6.604;2022-12-18T05:06:34;34.83;;;12.93;;
16820;SDS011;8527;49.740;6.604;2022-12-18T05:11:35;34.40;;;12.82;;
16820;SDS011;8527;49.740;6.604;2022-12-18T05:16:33;41.08;;;13.85;;
16820;SDS011;8527;49.740;6.604;2022-12-18T05:21:31;37.92;;;13.82;;
16820;SDS011;8527;49.740;6.604;2022-12-18T05:26:30;43.72;;;15.18;;
16820;SDS011;8527;49.740;6.604;2022-12-18T05:31:31;35.17;;;11.73;;
16820;SDS011;8527;49.740;6.604;2022-12-18T05:36:30;32.38;;;11.90;;
16820;SDS011;8527;49.740;6.604;2022-12-18T05:41:28;30.55;;;11.38;;
16820;SDS011;8527;49.740;6.604;2022-12-18T05:46:27;39.50;;;13.23;;
16820;SDS011;8527;49.740;6.604;2022-12-18T05:51:28;38.50;;;12.80;;
16820;SDS011;8527;49.740;6.604;2022-12-18T05:56:26;41.72;;;12.68;;
16820;SDS011;8527;49.740;6.604;2022-12-18T06:01:25;35.28;;;11.75;;
16820;SDS011;8527;49.740;6.604;2022-12-18T06:06:24;30.63;;;12.68;;
16820;SDS011;8527;49.740;6.604;2022-12-18T06:11:26;23.48;;;9.68;;
16820;SDS011;8527;49.740;6.604;2022-12-18T06:16:25;36.83;;;12.32;;
16820;SDS011;8527;49.740;6.604;2022-12-18T06:21:24;34.90;;;12.35;;
16820;SDS011;8527;49.740;6.604;2022-12-18T06:26:25;44.03;;;14.85;;
16820;SDS011;8527;49.740;6.604;2022-12-18T06:31:23;36.85;;;12.48;;
16820;SDS011;8527;49.740;6.604;2022-12-18T06:36:21;43.22;;;14.13;;
16820;SDS011;8527;49.740;6.604;2022-12-18T06:41:20;41.17;;;13.85;;
16820;SDS011;8527;49.740;6.604;2022-12-18T06:46:22;49.53;;;17.40;;
16820;SDS011;8527;49.740;6.604;2022-12-18T06:51:21;44.20;;;15.55;;
16820;SDS011;8527;49.740;6.604;2022-12-18T06:56:20;37.92;;;15.18;;
16820;SDS011;8527;49.740;6.604;2022-12-18T07:01:18;44.08;;;15.43;;
16820;SDS011;8527;49.740;6.604;2022-12-18T07:06:20;31.98;;;15.50;;
16820;SDS011;8527;49.740;6.604;2022-12-18T07:11:19;39.05;;;15.15;;
16820;SDS011;8527;49.740;6.604;2022-12-18T07:16:22;44.00;;;16.02;;
16820;SDS011;8527;49.740;6.604;2022-12-18T07:21:23;46.65;;;15.73;;
16820;SDS011;8527;49.740;6.604;2022-12-18T07:26:24;35.58;;;12.73;;
16820;SDS011;8527;49.740;6.604;2022-12-18T07:31:26;34.33;;;12.48;;
16820;SDS011;8527;49.740;6.604;2022-12-18T07:36:27;32.10;;;12.40;;
16820;SDS011;8527;49.740;6.604;2022-12-18T07:41:33;37.80;;;13.95;;
16820;SDS011;8527;49.740;6.604;2022-12-18T07:46:39;28.08;;;12.40;;
16820;SDS011;8527;49.740;6.604;2022-12-18T07:51:38;42.97;;;18.70;;
16820;SDS011;8527;49.740;6.604;2022-12-18T07:56:36;56.17;;;18.50;;
16820;SDS011;8527;49.740;6.604;2022-12-18T08:01:35;49.38;;;18.52;;
16820;SDS011;8527;49.740;6.604;2022-12-18T08:06:36;49.45;;;20.10;;
16820;SDS011;8527;49.740;6.604;2022-12-18T08:11:34;42.95;;;16.42;;
16820;SDS011;8527;49.740;6.604;2022-12-18T08:16:33;53.08;;;16.73;;
16820;SDS011;8527;49.740;6.604;2022-12-18T08:21:31;43.05;;;14.75;;
16820;SDS011;8527;49.740;6.604;2022-12-18T08:26:34;51.53;;;17.98;;
16820;SDS011;8527;49.740;6.604;2022-12-18T08:31:33;43.00;;;15.13;;
16820;SDS011;8527;49.740;6.604;2022-12-18T08:36:34;44.17;;;17.20;;
16820;SDS011;8527;49.740;6.604;2022-12-18T08:41:36;44.72;;;15.38;;
16820;SDS011;8527;49.740;6.604;2022-12-18T08:46:36;41.90;;;14.73;;
16820;SDS011;8527;49.740;6.604;2022-12-18T08:51:36;49.13;;;18.00;;
16820;SDS011;8527;49.740;6.604;2022-12-18T08:56:37;44.95;;;16.58;;
16820;SDS011;8527;49.740;6.604;2022-12-18T09:01:36;49.60;;;17.95;;
16820;SDS011;8527;49.740;6.604;2022-12-18T09:06:34;57.33;;;18.98;;
16820;SDS011;8527;49.740;6.604;2022-12-18T09:11:33;43.78;;;17.70;;
16820;SDS011;8527;49.740;6.604;2022-12-18T09:16:34;39.72;;;15.55;;
16820;SDS011;8527;49.740;6.604;2022-12-18T09:21:33;51.13;;;18.30;;
16820;SDS011;8527;49.740;6.604;2022-12-18T09:26:35;52.35;;;18.40;;
16820;SDS011;8527;49.740;6.604;2022-12-18T09:31:37;50.25;;;19.73;;
16820;SDS011;8527;49.740;6.604;2022-12-18T09:36:36;37.70;;;15.27;;
16820;SDS011;8527;49.740;6.604;2022-12-18T09:41:41;47.35;;;17.65;;
16820;SDS011;8527;49.740;6.604;2022-12-18T09:46:46;60.00;;;19.73;;
16820;SDS011;8527;49.740;6.604;2022-12-18T09:51:49;52.80;;;20.98;;
16820;SDS011;8527;49.740;6.604;2022-12-18T09:56:54;54.03;;;19.13;;
16820;SDS011;8527;49.740;6.604;2022-12-18T10:01:55;56.63;;;19.17;;
16820;SDS011;8527;49.740;6.604;2022-12-18T10:06:54;56.05;;;20.52;;
16820;SDS011;8527;49.740;6.604;2022-12-18T10:12:02;62.17;;;20.10;;
16820;SDS011;8527;49.740;6.604;2022-12-18T10:22:15;55.80;;;19.92;;
16820;SDS011;8527;49.740;6.604;2022-12-18T10:27:24;62.72;;;22.95;;
16820;SDS011;8527;49.740;6.604;2022-12-18T10:32:28;56.78;;;20.48;;
16820;SDS011;8527;49.740;6.604;2022-12-18T10:37:28;46.65;;;17.60;;
16820;SDS011;8527;49.740;6.604;2022-12-18T10:42:27;44.65;;;15.77;;
16820;SDS011;8527;49.740;6.604;2022-12-18T10:47:29;57.33;;;21.17;;
16820;SDS011;8527;49.740;6.604;2022-12-18T10:52:27;61.58;;;22.98;;
16820;SDS011;8527;49.740;6.604;2022-12-18T10:57:33;58.75;;;23.88;;
16820;SDS011;8527;49.740;6.604;2022-12-18T11:02:36;49.05;;;19.10;;
16820;SDS011;8527;49.740;6.604;2022-12-18T11:12:49;71.18;;;24.35;;
16820;SDS011;8527;49.740;6.604;2022-12-18T11:17:53;46.03;;;16.45;;
16820;SDS011;8527;49.740;6.604;2022-12-18T11:22:55;66.80;;;21.88;;
16820;SDS011;8527;49.740;6.604;2022-12-18T11:27:56;50.70;;;20.00;;
16820;SDS011;8527;49.740;6.604;2022-12-18T11:33:04;45.17;;;17.25;;
16820;SDS011;8527;49.740;6.604;2022-12-18T11:38:06;72.57;;;21.05;;
16820;SDS011;8527;49.740;6.604;2022-12-18T11:43:14;56.33;;;22.17;;
16820;SDS011;8527;49.740;6.604;2022-12-18T11:48:23;57.28;;;20.67;;
16820;SDS011;8527;49.740;6.604;2022-12-18T11:53:25;69.05;;;24.83;;
16820;SDS011;8527;49.740;6.604;2022-12-18T11:58:32;69.72;;;27.20;;
16820;SDS011;8527;49.740;6.604;2022-12-18T12:03:45;71.82;;;24.05;;
16820;SDS011;8527;49.740;6.604;2022-12-18T12:09:02;65.03;;;23.60;;
16820;SDS011;8527;49.740;6.604;2022-12-18T12:14:13;63.00;;;25.40;;
16820;SDS011;8527;49.740;6.604;2022-12-18T12:19:28;63.55;;;23.77;;
16820;SDS011;8527;49.740;6.604;2022-12-18T12:24:48;36.83;;;15.48;;
16820;SDS011;8527;49.740;6.604;2022-12-18T12:29:57;49.78;;;19.33;;
16820;SDS011;8527;49.740;6.604;2022-12-18T12:40:10;65.63;;;23.45;;
16820;SDS011;8527;49.740;6.604;2022-12-18T12:45:14;64.22;;;24.85;;
16820;SDS011;8527;49.740;6.604;2022-12-18T12:50:21;62.15;;;23.58;;
16820;SDS011;8527;49.740;6.604;2022-12-18T12:55:21;77.00;;;24.80;;
16820;SDS011;8527;49.740;6.604;2022-12-18T13:00:21;67.15;;;24.42;;
16820;SDS011;8527;49.740;6.604;2022-12-18T13:05:25;91.75;;;26.70;;
16820;SDS011;8527;49.740;6.604;2022-12-18T13:10:33;57.47;;;20.75;;
16820;SDS011;8527;49.740;6.604;2022-12-18T13:15:34;55.47;;;21.05;;
16820;SDS011;8527;49.740;6.604;2022-12-18T13:20:39;80.22;;;26.70;;
16820;SDS011;8527;49.740;6.604;2022-12-18T13:25:39;67.57;;;24.20;;
16820;SDS011;8527;49.740;6.604;2022-12-18T13:30:48;77.03;;;24.23;;
16820;SDS011;8527;49.740;6.604;2022-12-18T13:36:00;58.42;;;20.85;;
16820;SDS011;8527;49.740;6.604;2022-12-18T13:41:00;66.95;;;25.83;;
16820;SDS011;8527;49.740;6.604;2022-12-18T13:46:00;66.68;;;26.48;;
16820;SDS011;8527;49.740;6.604;2022-12-18T13:51:06;79.78;;;25.92;;
16820;SDS011;8527;49.740;6.604;2022-12-18T13:56:07;65.13;;;23.58;;
16820;SDS011;8527;49.740;6.604;2022-12-18T14:01:11;74.32;;;27.30;;
16820;SDS011;8527;49.740;6.604;2022-12-18T14:06:22;83.00;;;26.95;;
16820;SDS011;8527;49.740;6.604;2022-12-18T14:11:23;78.38;;;27.13;;
16820;SDS011;8527;49.740;6.604;2022-12-18T14:16:22;76.93;;;25.23;;
16820;SDS011;8527;49.740;6.604;2022-12-18T14:21:25;70.82;;;26.20;;
16820;SDS011;8527;49.740;6.604;2022-12-18T14:26:28;82.28;;;27.52;;
16820;SDS011;8527;49.740;6.604;2022-12-18T14:31:28;79.88;;;30.27;;
16820;SDS011;8527;49.740;6.604;2022-12-18T14:36:32;76.55;;;27.33;;
16820;SDS011;8527;49.740;6.604;2022-12-18T14:41:30;81.50;;;29.00;;
16820;SDS011;8527;49.740;6.604;2022-12-18T14:46:30;81.57;;;29.55;;
16820;SDS011;8527;49.740;6.604;2022-12-18T14:51:35;79.03;;;30.48;;
16820;SDS011;8527;49.740;6.604;2022-12-18T14:56:34;70.35;;;26.75;;
16820;SDS011;8527;49.740;6.604;2022-12-18T15:01:34;75.15;;;28.17;;
16820;SDS011;8527;49.740;6.604;2022-12-18T15:06:40;81.63;;;31.15;;
16820;SDS011;8527;49.740;6.604;2022-12-18T15:11:45;82.57;;;30.55;;
16820;SDS011;8527;49.740;6.604;2022-12-18T15:16:44;82.38;;;29.73;;
16820;SDS011;8527;49.740;6.604;2022-12-18T15:21:51;89.13;;;29.92;;
16820;SDS011;8527;49.740;6.604;2022-12-18T15:26:50;80.68;;;33.28;;
16820;SDS011;8527;49.740;6.604;2022-12-18T15:31:58;86.28;;;30.67;;
16820;SDS011;8527;49.740;6.604;2022-12-18T15:37:00;106.57;;;38.03;;
16820;SDS011;8527;49.740;6.604;2022-12-18T15:42:00;100.88;;;35.15;;
16820;SDS011;8527;49.740;6.604;2022-12-18T15:47:11;97.63;;;35.78;;
16820;SDS011;8527;49.740;6.604;2022-12-18T15:52:14;108.25;;;37.60;;
16820;SDS011;8527;49.740;6.604;2022-12-18T15:57:20;94.38;;;34.08;;
16820;SDS011;8527;49.740;6.604;2022-12-18T16:02:22;100.90;;;32.38;;
16820;SDS011;8527;49.740;6.604;2022-12-18T16:07:23;87.18;;;31.70;;
16820;SDS011;8527;49.740;6.604;2022-12-18T16:12:21;71.80;;;26.27;;
16820;SDS011;8527;49.740;6.604;2022-12-18T16:17:21;70.22;;;26.23;;
16820;SDS011;8527;49.740;6.604;2022-12-18T16:22:23;79.88;;;30.23;;
16820;SDS011;8527;49.740;6.604;2022-12-18T16:27:25;83.55;;;32.42;;
16820;SDS011;8527;49.740;6.604;2022-12-18T16:32:27;100.95;;;35.63;;
16820;SDS011;8527;49.740;6.604;2022-12-18T16:37:28;104.28;;;38.42;;
16820;SDS011;8527;49.740;6.604;2022-12-18T16:42:27;94.13;;;34.47;;
16820;SDS011;8527;49.740;6.604;2022-12-18T16:47:28;92.82;;;32.67;;
16820;SDS011;8527;49.740;6.604;2022-12-18T16:52:29;89.55;;;31.90;;
16820;SDS011;8527;49.740;6.604;2022-12-18T16:57:30;106.80;;;35.15;;
16820;SDS011;8527;49.740;6.604;2022-12-18T17:02:28;98.68;;;31.40;;
16820;SDS011;8527;49.740;6.604;2022-12-18T17:07:29;84.07;;;31.10;;
16820;SDS011;8527;49.740;6.604;2022-12-18T17:12:27;81.90;;;29.17;;
16820;SDS011;8527;49.740;6.604;2022-12-18T17:17:26;78.00;;;29.85;;
16820;SDS011;8527;49.740;6.604;2022-12-18T17:22:30;68.57;;;27.70;;
16820;SDS011;8527;49.740;6.604;2022-12-18T17:27:28;95.22;;;30.63;;
16820;SDS011;8527;49.740;6.604;2022-12-18T17:32:26;73.53;;;28.48;;
16820;SDS011;8527;49.740;6.604;2022-12-18T17:37:25;93.45;;;33.92;;
16820;SDS011;8527;49.740;6.604;2022-12-18T17:42:26;81.55;;;32.47;;
16820;SDS011;8527;49.740;6.604;2022-12-18T17:47:24;76.72;;;28.50;;
16820;SDS011;8527;49.740;6.604;2022-12-18T17:52:23;85.25;;;29.73;;
16820;SDS011;8527;49.740;6.604;2022-12-18T17:57:28;84.85;;;31.65;;
16820;SDS011;8527;49.740;6.604;2022-12-18T18:02:26;78.85;;;30.50;;
16820;SDS011;8527;49.740;6.604;2022-12-18T18:07:24;82.65;;;31.42;;
16820;SDS011;8527;49.740;6.604;2022-12-18T18:12:23;77.55;;;30.75;;
16820;SDS011;8527;49.740;6.604;2022-12-18T18:17:36;92.47;;;32.83;;
16820;SDS011;8527;49.740;6.604;2022-12-18T18:22:35;76.35;;;27.13;;
16820;SDS011;8527;49.740;6.604;2022-12-18T18:27:33;85.40;;;31.23;;
16820;SDS011;8527;49.740;6.604;2022-12-18T18:32:37;86.47;;;30.77;;
16820;SDS011;8527;49.740;6.604;2022-12-18T18:37:35;84.93;;;31.02;;
16820;SDS011;8527;49.740;6.604;2022-12-18T18:42:34;88.85;;;29.75;;
16820;SDS011;8527;49.740;6.604;2022-12-18T18:47:32;86.93;;;31.75;;
16820;SDS011;8527;49.740;6.604;2022-12-18T18:52:33;89.10;;;32.10;;
16820;SDS011;8527;49.740;6.604;2022-12-18T18:57:32;91.10;;;33.05;;
16820;SDS011;8527;49.740;6.604;2022-12-18T19:02:30;97.05;;;35.17;;
16820;SDS011;8527;49.740;6.604;2022-12-18T19:07:29;100.10;;;33.70;;
16820;SDS011;8527;49.740;6.604;2022-12-18T19:12:30;124.15;;;40.88;;
16820;SDS011;8527;49.740;6.604;2022-12-18T19:17:41;106.50;;;39.38;;
16820;SDS011;8527;49.740;6.604;2022-12-18T19:22:42;101.68;;;35.33;;
16820;SDS011;8527;49.740;6.604;2022-12-18T19:27:43;110.63;;;36.42;;
16820;SDS011;8527;49.740;6.604;2022-12-18T19:32:41;90.50;;;32.33;;
16820;SDS011;8527;49.740;6.604;2022-12-18T19:37:40;73.85;;;27.27;;
16820;SDS011;8527;49.740;6.604;2022-12-18T19:42:38;80.07;;;29.08;;
16820;SDS011;8527;49.740;6.604;2022-12-18T19:47:39;96.63;;;34.50;;
16820;SDS011;8527;49.740;6.604;2022-12-18T19:52:38;92.68;;;31.65;;
16820;SDS011;8527;49.740;6.604;2022-12-18T19:57:36;86.32;;;31.70;;
16820;SDS011;8527;49.740;6.604;2022-12-18T20:02:35;95.32;;;33.13;;
16820;SDS011;8527;49.740;6.604;2022-12-18T20:07:36;101.45;;;32.28;;
16820;SDS011;8527;49.740;6.604;2022-12-18T20:12:35;96.07;;;30.90;;
16820;SDS011;8527;49.740;6.604;2022-12-18T20:17:33;95.90;;;33.60;;
16820;SDS011;8527;49.740;6.604;2022-12-18T20:22:32;89.53;;;31.63;;
16820;SDS011;8527;49.740;6.604;2022-12-18T20:27:33;100.30;;;34.58;;
16820;SDS011;8527;49.740;6.604;2022-12-18T20:32:31;99.63;;;32.50;;
16820;SDS011;8527;49.740;6.604;2022-12-18T20:37:30;101.30;;;32.58;;
16820;SDS011;8527;49.740;6.604;2022-12-18T20:42:28;87.85;;;30.55;;
16820;SDS011;8527;49.740;6.604;2022-12-18T20:47:29;81.97;;;28.98;;
16820;SDS011;8527;49.740;6.604;2022-12-18T20:52:28;99.25;;;33.47;;
16820;SDS011;8527;49.740;6.604;2022-12-18T20:57:26;96.85;;;32.72;;
16820;SDS011;8527;49.740;6.604;2022-12-18T21:02:25;97.97;;;32.08;;
16820;SDS011;8527;49.740;6.604;2022-12-18T21:07:26;93.25;;;29.38;;
16820;SDS011;8527;49.740;6.604;2022-12-18T21:12:24;63.25;;;23.00;;
16820;SDS011;8527;49.740;6.604;2022-12-18T21:17:30;96.68;;;34.35;;
16820;SDS011;8527;49.740;6.604;2022-12-18T21:22:31;98.05;;;32.83;;
16820;SDS011;8527;49.740;6.604;2022-12-18T21:27:30;97.82;;;31.27;;
16820;SDS011;8527;49.740;6.604;2022-12-18T21:32:32;92.15;;;29.48;;
16820;SDS011;8527;49.740;6.604;2022-12-18T21:37:33;111.93;;;36.25;;
16820;SDS011;8527;49.740;6.604;2022-12-18T21:42:32;115.88;;;34.47;;
16820;SDS011;8527;49.740;6.604;2022-12-18T21:47:42;105.97;;;33.65;;
16820;SDS011;8527;49.740;6.604;2022-12-18T21:52:46;107.47;;;33.67;;
16820;SDS011;8527;49.740;6.604;2022-12-18T21:57:47;101.93;;;35.75;;
16820;SDS011;8527;49.740;6.604;2022-12-18T22:02:48;102.63;;;32.22;;
16820;SDS011;8527;49.740;6.604;2022-12-18T22:07:50;93.38;;;30.88;;
16820;SDS011;8527;49.740;6.604;2022-12-18T22:12:48;93.72;;;31.83;;
16820;SDS011;8527;49.740;6.604;2022-12-18T22:17:47;94.22;;;32.03;;
16820;SDS011;8527;49.740;6.604;2022-12-18T22:22:45;109.25;;;33.25;;
16820;SDS011;8527;49.740;6.604;2022-12-18T22:27:48;101.40;;;34.85;;
16820;SDS011;8527;49.740;6.604;2022-12-18T22:33:02;104.15;;;34.50;;
16820;SDS011;8527;49.740;6.604;2022-12-18T22:38:00;96.55;;;34.80;;
16820;SDS011;8527;49.740;6.604;2022-12-18T22:43:01;97.43;;;33.80;;
16820;SDS011;8527;49.740;6.604;2022-12-18T22:47:59;94.45;;;33.70;;
16820;SDS011;8527;49.740;6.604;2022-12-18T22:52:58;83.30;;;29.27;;
16820;SDS011;8527;49.740;6.604;2022-12-18T22:57:57;81.95;;;28.00;;
16820;SDS011;8527;49.740;6.604;2022-12-18T23:02:57;96.55;;;30.50;;
16820;SDS011;8527;49.740;6.604;2022-12-18T23:07:56;100.63;;;33.08;;
16820;SDS011;8527;49.740;6.604;2022-12-18T23:12:55;88.85;;;28.33;;
16820;SDS011;8527;49.740;6.604;2022-12-18T23:17:53;79.82;;;26.75;;
16820;SDS011;8527;49.740;6.604;2022-12-18T23:22:56;91.78;;;33.20;;
16820;SDS011;8527;49.740;6.604;2022-12-18T23:27:54;79.28;;;27.27;;
16820;SDS011;8527;49.740;6.604;2022-12-18T23:32:52;87.65;;;26.50;;
16820;SDS011;8527;49.740;6.604;2022-12-18T23:37:51;115.78;;;36.40;;
16820;SDS011;8527;49.740;6.604;2022-12-18T23:42:52;96.43;;;30.20;;
16820;SDS011;8527;49.740;6.604;2022-12-18T23:47:50;116.65;;;38.25;;
16820;SDS011;8527;49.740;6.604;2022-12-18T23:52:48;94.88;;;30.05;;
16820;SDS011;8527;49.740;6.604;2022-12-18T23:57:47;114.82;;;35.63;;
